VIDPVNKT [WF1806]

Details From VIDP - INDIRA GANDHI INTL
To VNKT - Kathmandu Tribhuvan Intl
Flight Number WF1806
Tags decoded
Created
Modified
Stats Distance 489 nm / 905 km
Max Altitude 0 ft / 0 m
Waypoints 5
Social Downloads 37
Likes 0
Share VATSIM

Download

Looking for another format? Having issues loading an existing format? Contact us
Advertisement - Login to hide

Notes

Requested: VIDP ALI LLK SMR VNKT

Route

VIDP ALI LLK SMR VNKT

ID Type Via Altitude Latitude Longitude Leg Dist Tot Dist Heading (true) Name
O VIDP APT - 0 ft / 0 m 28.56650˚ 77.10309˚ - 0 nm - INDIRA GANDHI INTL
ALI VOR - 0 ft / 0 m 27.82931˚ 78.17833˚ 72 nm 72 nm 128° / 128° ALIGARH VOR-DME
LLK VOR - 0 ft / 0 m 26.76220˚ 80.88047˚ 157 nm 229 nm 113° / 115° LUCKNOW VOR-DME
SMR VOR - 0 ft / 0 m 27.16417˚ 84.98222˚ 220 nm 450 nm 83° / 85° SIMARA VOR-DME
O VNKT APT - 0 ft / 0 m 27.69658˚ 85.35910˚ 37 nm 488 nm 32° / 32° Kathmandu Tribhuvan Intl

Altitude Profile

Advertisement - Login to hide

Weather


0- 5 10 15 20 25 30 35+ Temperature / ° C

Clouds and Precipitation
Forecast for 2018-05-25 00:00 UTC. Updated 4 hours ago

Ground ~20,000 ft ~40,000 ft Winds

VIDP

Details ICAO VIDP (DEL)
Name INDIRA GANDHI INTL
Region India
Timezone Asia/Kolkata (UTC+5.5)
Stats Elevation 777 ft / 237 m (AMSL)
Location 28.566496° 77.103090°
Runways 2
Magnetic Variation 1.243° E

METAR

VIDP 250330Z 26006KT 3000 HZ NSC 36/06 Q1004 NOSIG

Decode

TAF

TAF VIDP 242300Z 2500/2606 26005KT 2000 HZ DU FEW100 BECMG 2505/2507 35005KT 3500 HZ DU FEW040 SCT100 BECMG 2509/2511 28010KT 5000 HZ DU SCT100 BECMG 2516/2518 26005KT 3500 HZ DU FEW040 SCT100 BECMG 2600/2602 2000 HZ DU BECMG 2604/2605 29007KT 3000 HZ DU NSC

Decode

Departure Runways

ID Width Length Bearing (true) Bearing (mag) Surface Threshold Offset Overrun Length
09 150 ft / 46 m 9,270 ft / 2,826 m 91.50° 90.26° Asphalt 0 ft / 0 m 195 ft / 59 m
10 150 ft / 46 m 12,488 ft / 3,807 m 104.67° 103.43° Asphalt 0 ft / 0 m 880 ft / 268 m
27 150 ft / 46 m 9,270 ft / 2,826 m 271.52° 270.28° Asphalt 499 ft / 152 m 0 ft / 0 m
28 150 ft / 46 m 12,488 ft / 3,807 m 284.69° 283.45° Asphalt 0 ft / 0 m 470 ft / 143 m

VNKT

Details ICAO VNKT (KTM)
Name Kathmandu Tribhuvan Intl
Region Nepal
Timezone Asia/Kathmandu (UTC+5.8)
Stats Elevation 4,390 ft / 1,338 m (AMSL)
Location 27.696583° 85.359100°
Runways 1
Magnetic Variation 0.514° E

METAR

VNKT 250320Z VRB02KT 6000 FEW015 SCT030 25/20 Q1013 NOSIG

Decode

TAF

TAF VNKT 242300Z 2500/2524 4000 BR FEW010 SCT025 PROB30 2501/2503 2000 BR BECMG 2504/2505 14005KT 6000 FEW015 BECMG 2507/2509 25010KT 8000 FEW020 SCT100 PROB40 2508/2514 VRB12KT 4000 -TSRA FEW025CB BKN100 BECMG 2514/2515 21003KT 6000 FEW015 SCT100

Decode

Destination Runways

ID Width Length Bearing (true) Bearing (mag) Surface Threshold Offset Overrun Length
02 148 ft / 45 m 10,017 ft / 3,053 m 21.50° 20.99° Asphalt 0 ft / 0 m 0 ft / 0 m
20 148 ft / 45 m 10,017 ft / 3,053 m 201.51° 201.00° Asphalt 400 ft / 122 m 0 ft / 0 m

Popular Alternatives